createdAt,value
2017-10-31T00:00:08.729Z,921.61
2017-10-31T00:00:22.167Z,921.57
2017-10-31T00:00:35.626Z,921.59
2017-10-31T00:00:49.077Z,921.59
2017-10-31T00:01:02.535Z,921.63
2017-10-31T00:01:15.411Z,921.6
2017-10-31T00:01:28.331Z,921.61
2017-10-31T00:01:41.804Z,921.61
2017-10-31T00:01:54.665Z,921.6
2017-10-31T00:02:08.061Z,921.6
2017-10-31T00:02:20.929Z,921.61
2017-10-31T00:02:33.872Z,921.57
2017-10-31T00:02:46.783Z,921.59
2017-10-31T00:02:59.157Z,921.55
2017-10-31T00:03:12.038Z,921.58
2017-10-31T00:03:24.940Z,921.59
2017-10-31T00:03:37.881Z,921.55
2017-10-31T00:03:50.797Z,921.52
2017-10-31T00:04:03.731Z,921.52
2017-10-31T00:04:17.176Z,921.5
2017-10-31T00:04:30.685Z,921.48
2017-10-31T00:04:43.594Z,921.5
2017-10-31T00:04:57.039Z,921.47
2017-10-31T00:05:09.972Z,921.44
2017-10-31T00:05:23.402Z,921.44
2017-10-31T00:05:36.871Z,921.41
2017-10-31T00:05:50.288Z,921.41
2017-10-31T00:06:03.193Z,921.37
2017-10-31T00:06:16.642Z,921.36
2017-10-31T00:06:30.104Z,921.39
2017-10-31T00:06:42.998Z,921.34
2017-10-31T00:06:55.908Z,921.36
2017-10-31T00:07:09.357Z,921.36
2017-10-31T00:07:22.254Z,921.35
2017-10-31T00:07:35.153Z,921.34
2017-10-31T00:07:48.551Z,921.34
2017-10-31T00:08:01.929Z,921.36
2017-10-31T00:08:15.423Z,921.37
2017-10-31T00:08:28.329Z,921.37
2017-10-31T00:08:41.746Z,921.43
2017-10-31T00:08:54.590Z,921.41
2017-10-31T00:09:07.524Z,921.46
2017-10-31T00:09:20.462Z,921.45
2017-10-31T00:09:33.970Z,921.45
2017-10-31T00:09:47.388Z,921.47
2017-10-31T00:10:00.314Z,921.47
2017-10-31T00:10:13.763Z,921.51
2017-10-31T00:10:27.171Z,921.51
2017-10-31T00:10:40.609Z,921.5
2017-10-31T00:10:54.022Z,921.5
2017-10-31T00:11:06.934Z,921.5
2017-10-31T00:11:19.902Z,921.5
2017-10-31T00:11:33.381Z,921.51
2017-10-31T00:11:46.356Z,921.52
2017-10-31T00:11:59.820Z,921.49
2017-10-31T00:12:12.810Z,921.49
2017-10-31T00:12:25.764Z,921.52
2017-10-31T00:12:39.172Z,921.52
2017-10-31T00:12:52.608Z,921.46
2017-10-31T00:13:06.076Z,921.48
2017-10-31T00:13:18.965Z,921.49
2017-10-31T00:13:32.386Z,921.46
2017-10-31T00:13:45.806Z,921.47
2017-10-31T00:13:59.314Z,921.48
2017-10-31T00:14:12.206Z,921.49
2017-10-31T00:14:25.609Z,921.51
2017-10-31T00:14:39.046Z,921.53
2017-10-31T00:14:52.471Z,921.46
2017-10-31T00:15:04.891Z,921.47
2017-10-31T00:15:18.353Z,921.47
2017-10-31T00:15:31.225Z,921.48
2017-10-31T00:15:44.127Z,921.5
2017-10-31T00:15:57.027Z,921.5
2017-10-31T00:16:08.816Z,921.46
2017-10-31T00:16:21.687Z,921.5
2017-10-31T00:16:34.570Z,921.48
2017-10-31T00:16:48.060Z,921.47
2017-10-31T00:17:00.994Z,921.44
2017-10-31T00:17:13.882Z,921.47
2017-10-31T00:17:26.746Z,921.45
2017-10-31T00:17:39.141Z,921.5
2017-10-31T00:17:52.583Z,921.47
2017-10-31T00:18:05.988Z,921.49
2017-10-31T00:18:18.934Z,921.43
2017-10-31T00:18:31.319Z,921.49
2017-10-31T00:18:44.773Z,921.47
2017-10-31T00:18:57.696Z,921.43
2017-10-31T00:19:11.251Z,921.46
2017-10-31T00:19:23.614Z,921.43
2017-10-31T00:19:36.149Z,921.42
2017-10-31T00:19:49.061Z,921.41
2017-10-31T00:20:01.946Z,921.4
2017-10-31T00:20:14.819Z,921.41
2017-10-31T00:20:28.270Z,921.44
2017-10-31T00:20:41.179Z,921.45
2017-10-31T00:20:54.651Z,921.42
2017-10-31T00:21:08.133Z,921.45
2017-10-31T00:21:21.606Z,921.46
2017-10-31T00:21:34.520Z,921.46
2017-10-31T00:21:47.980Z,921.45
2017-10-31T00:22:01.438Z,921.45
2017-10-31T00:22:14.323Z,921.48
2017-10-31T00:22:27.733Z,921.45
2017-10-31T00:22:40.642Z,921.46
2017-10-31T00:22:53.491Z,921.48
2017-10-31T00:23:06.420Z,921.51
2017-10-31T00:23:19.870Z,921.45
2017-10-31T00:23:33.322Z,921.45
2017-10-31T00:23:46.251Z,921.46
2017-10-31T00:23:59.781Z,921.45
2017-10-31T00:24:12.730Z,921.52
2017-10-31T00:24:25.064Z,921.49
2017-10-31T00:24:38.124Z,921.51
2017-10-31T00:24:51.577Z,921.53
2017-10-31T00:25:03.922Z,921.51
2017-10-31T00:25:16.820Z,921.5
2017-10-31T00:25:30.278Z,921.49
2017-10-31T00:25:43.144Z,921.53
2017-10-31T00:25:56.618Z,921.5
2017-10-31T00:26:10.137Z,921.54
2017-10-31T00:26:23.614Z,921.53
2017-10-31T00:26:36.549Z,921.54
2017-10-31T00:26:50.007Z,921.55
2017-10-31T00:27:03.443Z,921.54
2017-10-31T00:27:16.893Z,921.55
2017-10-31T00:27:29.730Z,921.57
2017-10-31T00:27:43.171Z,921.55
2017-10-31T00:27:56.643Z,921.59
2017-10-31T00:28:09.011Z,921.57
2017-10-31T00:28:22.465Z,921.61
2017-10-31T00:28:35.963Z,921.61
2017-10-31T00:28:49.429Z,921.61
2017-10-31T00:29:02.318Z,921.62
2017-10-31T00:29:15.284Z,921.63
2017-10-31T00:29:28.849Z,921.64
2017-10-31T00:29:42.292Z,921.61
2017-10-31T00:29:55.143Z,921.63
2017-10-31T00:30:08.605Z,921.62
2017-10-31T00:30:20.980Z,921.64
2017-10-31T00:30:34.390Z,921.62
2017-10-31T00:30:46.786Z,921.66
2017-10-31T00:31:00.201Z,921.62
2017-10-31T00:31:12.034Z,921.67
2017-10-31T00:31:25.415Z,921.65
2017-10-31T00:31:38.835Z,921.65
2017-10-31T00:31:52.270Z,921.66
2017-10-31T00:32:05.718Z,921.63
2017-10-31T00:32:18.647Z,921.66
2017-10-31T00:32:31.549Z,921.68
2017-10-31T00:32:44.396Z,921.7
2017-10-31T00:32:56.767Z,921.67
2017-10-31T00:33:09.693Z,921.7
2017-10-31T00:33:22.048Z,921.72
2017-10-31T00:33:34.906Z,921.67
2017-10-31T00:33:48.330Z,921.71
2017-10-31T00:34:01.795Z,921.75
2017-10-31T00:34:14.703Z,921.72
2017-10-31T00:34:27.586Z,921.74
2017-10-31T00:34:40.718Z,921.76
2017-10-31T00:34:54.165Z,921.74
2017-10-31T00:35:07.605Z,921.75
2017-10-31T00:35:21.019Z,921.77
2017-10-31T00:35:34.513Z,921.78
2017-10-31T00:35:46.865Z,921.76
2017-10-31T00:36:00.300Z,921.8
2017-10-31T00:36:13.266Z,921.77
2017-10-31T00:36:25.601Z,921.81
2017-10-31T00:36:39.054Z,921.81
2017-10-31T00:36:52.470Z,921.81
2017-10-31T00:37:05.966Z,921.82
2017-10-31T00:37:18.871Z,921.82
2017-10-31T00:37:31.799Z,921.82
2017-10-31T00:37:45.257Z,921.81
2017-10-31T00:37:58.694Z,921.81
2017-10-31T00:38:10.548Z,921.8
2017-10-31T00:38:23.479Z,921.82
2017-10-31T00:38:36.373Z,921.79
2017-10-31T00:38:49.848Z,921.8
2017-10-31T00:39:03.283Z,921.78
2017-10-31T00:39:16.175Z,921.79
2017-10-31T00:39:28.570Z,921.77
2017-10-31T00:39:42.009Z,921.79
2017-10-31T00:39:54.903Z,921.79
2017-10-31T00:40:07.252Z,921.78
2017-10-31T00:40:20.169Z,921.78
2017-10-31T00:40:33.603Z,921.79
2017-10-31T00:40:46.484Z,921.82
2017-10-31T00:40:59.344Z,921.8
2017-10-31T00:41:12.789Z,921.8
2017-10-31T00:41:26.217Z,921.79
2017-10-31T00:41:38.024Z,921.8
2017-10-31T00:41:50.942Z,921.78
2017-10-31T00:42:04.373Z,921.79
2017-10-31T00:42:17.259Z,921.76
2017-10-31T00:42:30.164Z,921.79
2017-10-31T00:42:43.670Z,921.77
2017-10-31T00:42:57.037Z,921.77
2017-10-31T00:43:09.969Z,921.76
2017-10-31T00:43:23.372Z,921.77
2017-10-31T00:43:36.795Z,921.76
2017-10-31T00:43:50.250Z,921.75
2017-10-31T00:44:03.681Z,921.74
2017-10-31T00:44:17.208Z,921.77
2017-10-31T00:44:30.714Z,921.76
2017-10-31T00:44:44.124Z,921.77
2017-10-31T00:44:56.515Z,921.76
2017-10-31T00:45:10.000Z,921.79
2017-10-31T00:45:23.431Z,921.75
2017-10-31T00:45:36.921Z,921.76
2017-10-31T00:45:50.375Z,921.76
2017-10-31T00:46:03.275Z,921.74
2017-10-31T00:46:16.139Z,921.74
2017-10-31T00:46:29.636Z,921.78
2017-10-31T00:46:42.546Z,921.78
2017-10-31T00:46:56.035Z,921.76
2017-10-31T00:47:09.463Z,921.73
2017-10-31T00:47:22.892Z,921.74
2017-10-31T00:47:36.404Z,921.75
2017-10-31T00:47:49.830Z,921.76
2017-10-31T00:48:02.734Z,921.75
2017-10-31T00:48:16.182Z,921.76
2017-10-31T00:48:28.556Z,921.76
2017-10-31T00:48:42.033Z,921.75
2017-10-31T00:48:55.458Z,921.74
2017-10-31T00:49:08.346Z,921.81
2017-10-31T00:49:21.806Z,921.77
2017-10-31T00:49:34.114Z,921.78
2017-10-31T00:49:47.790Z,921.77
2017-10-31T00:49:59.582Z,921.74
2017-10-31T00:50:12.450Z,921.79
2017-10-31T00:50:25.332Z,921.78
2017-10-31T00:50:38.787Z,921.73
2017-10-31T00:50:52.215Z,921.77
2017-10-31T00:51:05.070Z,921.75
2017-10-31T00:51:18.523Z,921.78
2017-10-31T00:51:31.442Z,921.77
2017-10-31T00:51:44.950Z,921.75
2017-10-31T00:51:57.797Z,921.78
2017-10-31T00:52:11.264Z,921.78
2017-10-31T00:52:24.750Z,921.75
2017-10-31T00:52:38.255Z,921.78
2017-10-31T00:52:51.133Z,921.77
2017-10-31T00:53:04.562Z,921.76
2017-10-31T00:53:18.017Z,921.76
2017-10-31T00:53:31.487Z,921.78
2017-10-31T00:53:44.396Z,921.75
2017-10-31T00:53:57.345Z,921.76
2017-10-31T00:54:09.923Z,921.76
2017-10-31T00:54:22.296Z,921.78
2017-10-31T00:54:35.686Z,921.75
2017-10-31T00:54:48.076Z,921.74
2017-10-31T00:55:00.976Z,921.76
2017-10-31T00:55:14.385Z,921.77
2017-10-31T00:55:27.293Z,921.77
2017-10-31T00:55:40.174Z,921.75
2017-10-31T00:55:53.659Z,921.75
2017-10-31T00:56:07.105Z,921.78
2017-10-31T00:56:20.550Z,921.76
2017-10-31T00:56:33.972Z,921.75
2017-10-31T00:56:47.347Z,921.79
2017-10-31T00:57:00.770Z,921.76
2017-10-31T00:57:13.698Z,921.77
2017-10-31T00:57:27.117Z,921.77
2017-10-31T00:57:40.029Z,921.78
2017-10-31T00:57:53.479Z,921.8
2017-10-31T00:58:06.932Z,921.78
2017-10-31T00:58:20.404Z,921.77
2017-10-31T00:58:33.355Z,921.78
2017-10-31T00:58:46.797Z,921.74
2017-10-31T00:59:00.272Z,921.73
2017-10-31T00:59:13.673Z,921.73
2017-10-31T00:59:27.127Z,921.75
2017-10-31T00:59:40.157Z,921.75
2017-10-31T00:59:53.535Z,921.74
2017-10-31T01:00:06.411Z,921.68
2017-10-31T01:00:19.853Z,921.73
2017-10-31T01:00:33.332Z,921.75
2017-10-31T01:00:46.786Z,921.72
2017-10-31T01:00:59.687Z,921.73
2017-10-31T01:01:12.556Z,921.72
2017-10-31T01:01:25.958Z,921.73
2017-10-31T01:01:39.405Z,921.72
2017-10-31T01:01:52.829Z,921.7
2017-10-31T01:02:06.293Z,921.72
2017-10-31T01:02:19.753Z,921.72
2017-10-31T01:02:33.130Z,921.69
2017-10-31T01:02:46.560Z,921.7
2017-10-31T01:02:59.988Z,921.71
2017-10-31T01:03:13.401Z,921.73
2017-10-31T01:03:26.276Z,921.68
2017-10-31T01:03:39.686Z,921.7
2017-10-31T01:03:53.159Z,921.72
2017-10-31T01:04:06.095Z,921.71
2017-10-31T01:04:19.560Z,921.73
2017-10-31T01:04:33.209Z,921.74
2017-10-31T01:04:46.584Z,921.73
2017-10-31T01:04:58.895Z,921.74
2017-10-31T01:05:12.356Z,921.74
2017-10-31T01:05:25.203Z,921.79
2017-10-31T01:05:38.655Z,921.79
2017-10-31T01:05:52.100Z,921.81
2017-10-31T01:06:05.013Z,921.82
2017-10-31T01:06:18.486Z,921.8
2017-10-31T01:06:31.416Z,921.84
2017-10-31T01:06:44.366Z,921.83
2017-10-31T01:06:57.307Z,921.83
2017-10-31T01:07:10.250Z,921.85
2017-10-31T01:07:23.139Z,921.85
2017-10-31T01:07:36.056Z,921.86
2017-10-31T01:07:49.511Z,921.84
2017-10-31T01:08:02.974Z,921.87
2017-10-31T01:08:15.864Z,921.85
2017-10-31T01:08:29.311Z,921.89
2017-10-31T01:08:42.744Z,921.9
2017-10-31T01:08:55.638Z,921.9
2017-10-31T01:09:09.100Z,921.91
2017-10-31T01:09:21.472Z,921.91
2017-10-31T01:09:33.804Z,921.88
2017-10-31T01:09:47.228Z,921.89
2017-10-31T01:10:00.694Z,921.92
2017-10-31T01:10:13.592Z,921.9
2017-10-31T01:10:26.470Z,921.89
2017-10-31T01:10:39.897Z,921.89
2017-10-31T01:10:52.775Z,921.91
2017-10-31T01:11:05.722Z,921.91
2017-10-31T01:11:19.135Z,921.89
2017-10-31T01:11:31.504Z,921.92
2017-10-31T01:11:45.015Z,921.92
2017-10-31T01:11:58.520Z,921.92
2017-10-31T01:12:10.889Z,921.92
2017-10-31T01:12:23.841Z,921.93
2017-10-31T01:12:36.750Z,921.94
2017-10-31T01:12:50.184Z,921.92
2017-10-31T01:13:03.086Z,921.93
2017-10-31T01:13:16.505Z,921.9
2017-10-31T01:13:29.918Z,921.94
2017-10-31T01:13:43.379Z,921.88
2017-10-31T01:13:55.220Z,921.91
2017-10-31T01:14:08.153Z,921.91
2017-10-31T01:14:20.584Z,921.87
2017-10-31T01:14:34.085Z,921.89
2017-10-31T01:14:47.013Z,921.89
2017-10-31T01:15:00.476Z,921.87
2017-10-31T01:15:12.850Z,921.88
2017-10-31T01:15:25.766Z,921.88
2017-10-31T01:15:39.212Z,921.86
2017-10-31T01:15:52.738Z,921.86
2017-10-31T01:16:06.203Z,921.85
2017-10-31T01:16:19.672Z,921.82
2017-10-31T01:16:32.014Z,921.82
2017-10-31T01:16:44.959Z,921.83
2017-10-31T01:16:58.434Z,921.86
2017-10-31T01:17:11.913Z,921.81
2017-10-31T01:17:25.362Z,921.83
2017-10-31T01:17:38.833Z,921.85
2017-10-31T01:17:52.334Z,921.78
2017-10-31T01:18:05.816Z,921.78
2017-10-31T01:18:18.669Z,921.79
2017-10-31T01:18:32.089Z,921.8
2017-10-31T01:18:45.578Z,921.81
2017-10-31T01:18:59.030Z,921.76
2017-10-31T01:19:12.492Z,921.75
2017-10-31T01:19:25.415Z,921.76
2017-10-31T01:19:38.891Z,921.76
2017-10-31T01:19:53.068Z,921.75
2017-10-31T01:20:05.998Z,921.75
2017-10-31T01:20:19.466Z,921.75
2017-10-31T01:20:32.378Z,921.76
2017-10-31T01:20:45.366Z,921.71
2017-10-31T01:20:58.765Z,921.75
2017-10-31T01:21:11.654Z,921.76
2017-10-31T01:21:24.634Z,921.78
2017-10-31T01:21:38.047Z,921.73
2017-10-31T01:21:50.909Z,921.73
2017-10-31T01:22:04.391Z,921.73
2017-10-31T01:22:17.822Z,921.74
2017-10-31T01:22:31.283Z,921.75
2017-10-31T01:22:44.218Z,921.71
2017-10-31T01:22:57.723Z,921.78
2017-10-31T01:23:10.630Z,921.78
2017-10-31T01:23:23.560Z,921.77
2017-10-31T01:23:37.042Z,921.75
2017-10-31T01:23:49.949Z,921.75
2017-10-31T01:24:03.405Z,921.78
2017-10-31T01:24:16.308Z,921.78
2017-10-31T01:24:29.246Z,921.74
2017-10-31T01:24:42.668Z,921.77
2017-10-31T01:24:56.130Z,921.72
2017-10-31T01:25:09.612Z,921.74
2017-10-31T01:25:23.075Z,921.74
2017-10-31T01:25:35.941Z,921.75
2017-10-31T01:25:49.467Z,921.74
2017-10-31T01:26:02.985Z,921.75
2017-10-31T01:26:15.392Z,921.72
2017-10-31T01:26:28.802Z,921.73
2017-10-31T01:26:42.227Z,921.74
2017-10-31T01:26:55.685Z,921.74
2017-10-31T01:27:08.581Z,921.73
2017-10-31T01:27:21.994Z,921.71
2017-10-31T01:27:35.469Z,921.75
2017-10-31T01:27:48.985Z,921.73
2017-10-31T01:28:01.831Z,921.75
2017-10-31T01:28:14.744Z,921.71
2017-10-31T01:28:27.634Z,921.69
2017-10-31T01:28:41.082Z,921.7
2017-10-31T01:28:54.522Z,921.72
2017-10-31T01:29:07.976Z,921.71
2017-10-31T01:29:21.412Z,921.67
2017-10-31T01:29:34.843Z,921.7
2017-10-31T01:29:48.246Z,921.67
2017-10-31T01:30:01.279Z,921.66
2017-10-31T01:30:14.225Z,921.69
2017-10-31T01:30:27.189Z,921.67
2017-10-31T01:30:40.631Z,921.68
2017-10-31T01:30:54.106Z,921.66
2017-10-31T01:31:07.026Z,921.65
2017-10-31T01:31:20.467Z,921.6
2017-10-31T01:31:32.810Z,921.62
2017-10-31T01:31:46.232Z,921.66
2017-10-31T01:31:59.141Z,921.63
2017-10-31T01:32:12.586Z,921.64
2017-10-31T01:32:26.078Z,921.64
2017-10-31T01:32:39.522Z,921.65
2017-10-31T01:32:52.988Z,921.63
2017-10-31T01:33:06.693Z,921.64
2017-10-31T01:33:20.167Z,921.65
2017-10-31T01:33:33.582Z,921.65
2017-10-31T01:33:47.096Z,921.63
2017-10-31T01:34:00.534Z,921.66
2017-10-31T01:34:13.451Z,921.65
2017-10-31T01:34:26.367Z,921.64
2017-10-31T01:34:39.250Z,921.65
2017-10-31T01:34:52.682Z,921.66
2017-10-31T01:35:06.165Z,921.64
2017-10-31T01:35:19.582Z,921.62
2017-10-31T01:35:31.416Z,921.6
2017-10-31T01:35:44.889Z,921.66
2017-10-31T01:35:58.351Z,921.61
2017-10-31T01:36:11.816Z,921.63
2017-10-31T01:36:25.213Z,921.64
2017-10-31T01:36:38.140Z,921.61
2017-10-31T01:36:51.565Z,921.62
2017-10-31T01:37:04.420Z,921.59
2017-10-31T01:37:17.313Z,921.65
2017-10-31T01:37:30.771Z,921.63
2017-10-31T01:37:44.243Z,921.59
2017-10-31T01:37:57.666Z,921.59
2017-10-31T01:38:09.992Z,921.59
2017-10-31T01:38:23.443Z,921.65
2017-10-31T01:38:36.387Z,921.63
2017-10-31T01:38:49.270Z,921.61
2017-10-31T01:39:02.743Z,921.63
2017-10-31T01:39:16.209Z,921.58
2017-10-31T01:39:29.699Z,921.6
2017-10-31T01:39:42.617Z,921.58
2017-10-31T01:39:56.100Z,921.58
2017-10-31T01:40:09.554Z,921.57
2017-10-31T01:40:22.448Z,921.57
2017-10-31T01:40:35.297Z,921.55
2017-10-31T01:40:48.785Z,921.54
2017-10-31T01:41:02.196Z,921.56
2017-10-31T01:41:15.653Z,921.54
2017-10-31T01:41:29.189Z,921.54
2017-10-31T01:41:42.089Z,921.54
2017-10-31T01:41:55.563Z,921.54
2017-10-31T01:42:08.440Z,921.56
2017-10-31T01:42:21.380Z,921.5
2017-10-31T01:42:34.863Z,921.52
2017-10-31T01:42:47.763Z,921.49
2017-10-31T01:43:01.199Z,921.51
2017-10-31T01:43:14.647Z,921.49
2017-10-31T01:43:27.528Z,921.49
2017-10-31T01:43:40.967Z,921.51
2017-10-31T01:43:53.871Z,921.52
2017-10-31T01:44:07.375Z,921.51
2017-10-31T01:44:20.841Z,921.5
2017-10-31T01:44:34.230Z,921.47
2017-10-31T01:44:47.739Z,921.5
2017-10-31T01:45:01.200Z,921.51
2017-10-31T01:45:14.719Z,921.48
2017-10-31T01:45:28.192Z,921.54
2017-10-31T01:45:41.665Z,921.52
2017-10-31T01:45:54.543Z,921.52
2017-10-31T01:46:07.463Z,921.5
2017-10-31T01:46:20.880Z,921.53
2017-10-31T01:46:34.342Z,921.53
2017-10-31T01:46:47.755Z,921.51
2017-10-31T01:47:00.706Z,921.51
2017-10-31T01:47:14.164Z,921.52
2017-10-31T01:47:27.097Z,921.54
2017-10-31T01:47:39.447Z,921.53
2017-10-31T01:47:52.296Z,921.55
2017-10-31T01:48:05.188Z,921.56
2017-10-31T01:48:18.644Z,921.54
2017-10-31T01:48:31.528Z,921.55
2017-10-31T01:48:44.987Z,921.55
2017-10-31T01:48:57.859Z,921.57
2017-10-31T01:49:11.300Z,921.58
2017-10-31T01:49:24.243Z,921.58
2017-10-31T01:49:37.688Z,921.59
2017-10-31T01:49:51.150Z,921.59
2017-10-31T01:50:05.234Z,921.6
2017-10-31T01:50:18.657Z,921.59
2017-10-31T01:50:31.053Z,921.61
2017-10-31T01:50:43.411Z,921.62
2017-10-31T01:50:56.895Z,921.62
2017-10-31T01:51:10.403Z,921.63
2017-10-31T01:51:23.866Z,921.63
2017-10-31T01:51:37.290Z,921.64
2017-10-31T01:51:50.713Z,921.63
2017-10-31T01:52:04.155Z,921.61
2017-10-31T01:52:17.037Z,921.68
2017-10-31T01:52:29.413Z,921.68
2017-10-31T01:52:42.889Z,921.69
2017-10-31T01:52:55.820Z,921.65
2017-10-31T01:53:09.248Z,921.68
2017-10-31T01:53:22.689Z,921.69
2017-10-31T01:53:35.049Z,921.7
2017-10-31T01:53:48.509Z,921.72
2017-10-31T01:54:01.474Z,921.72
2017-10-31T01:54:14.911Z,921.7
2017-10-31T01:54:28.389Z,921.7
2017-10-31T01:54:41.317Z,921.71
2017-10-31T01:54:54.269Z,921.69
2017-10-31T01:55:07.199Z,921.72
2017-10-31T01:55:20.659Z,921.7
2017-10-31T01:55:33.573Z,921.73
2017-10-31T01:55:45.941Z,921.69
2017-10-31T01:55:59.418Z,921.7
2017-10-31T01:56:12.868Z,921.66
2017-10-31T01:56:26.314Z,921.69
2017-10-31T01:56:39.283Z,921.65
2017-10-31T01:56:52.723Z,921.64
2017-10-31T01:57:06.147Z,921.64
2017-10-31T01:57:19.635Z,921.61
2017-10-31T01:57:33.076Z,921.64
2017-10-31T01:57:45.944Z,921.62
2017-10-31T01:57:59.358Z,921.62
2017-10-31T01:58:12.242Z,921.6
2017-10-31T01:58:25.692Z,921.63
2017-10-31T01:58:39.190Z,921.63
2017-10-31T01:58:52.081Z,921.59
2017-10-31T01:59:04.950Z,921.6
2017-10-31T01:59:17.827Z,921.63
2017-10-31T01:59:31.291Z,921.57
2017-10-31T01:59:44.203Z,921.59
2017-10-31T01:59:56.010Z,921.59
2017-10-31T02:00:09.063Z,921.61
2017-10-31T02:00:21.956Z,921.59
2017-10-31T02:00:35.378Z,921.6
2017-10-31T02:00:48.296Z,921.58
2017-10-31T02:01:01.708Z,921.59
2017-10-31T02:01:15.210Z,921.58
2017-10-31T02:01:28.644Z,921.57
2017-10-31T02:01:42.056Z,921.58
2017-10-31T02:01:55.516Z,921.54
2017-10-31T02:02:08.951Z,921.55
2017-10-31T02:02:22.399Z,921.54
2017-10-31T02:02:35.819Z,921.56
2017-10-31T02:02:49.284Z,921.57
2017-10-31T02:03:02.200Z,921.56
2017-10-31T02:03:15.706Z,921.57
2017-10-31T02:03:29.101Z,921.53
2017-10-31T02:03:41.476Z,921.51
2017-10-31T02:03:54.921Z,921.55
2017-10-31T02:04:07.834Z,921.53
2017-10-31T02:04:21.239Z,921.53
2017-10-31T02:04:34.664Z,921.53
2017-10-31T02:04:48.151Z,921.52
2017-10-31T02:05:01.080Z,921.51
2017-10-31T02:05:15.335Z,921.55
2017-10-31T02:05:28.297Z,921.55
2017-10-31T02:05:40.141Z,921.5
2017-10-31T02:05:53.841Z,921.54
2017-10-31T02:06:06.736Z,921.56
2017-10-31T02:06:19.687Z,921.55
2017-10-31T02:06:33.118Z,921.57
2017-10-31T02:06:46.580Z,921.53
2017-10-31T02:06:59.991Z,921.54
2017-10-31T02:07:13.433Z,921.52
2017-10-31T02:07:26.882Z,921.52
2017-10-31T02:07:39.267Z,921.52
2017-10-31T02:07:52.680Z,921.48
2017-10-31T02:08:06.152Z,921.5
2017-10-31T02:08:18.541Z,921.49
2017-10-31T02:08:32.006Z,921.51
2017-10-31T02:08:45.494Z,921.47
2017-10-31T02:08:57.909Z,921.44
2017-10-31T02:09:11.339Z,921.43
2017-10-31T02:09:24.705Z,921.44
2017-10-31T02:09:38.126Z,921.43
2017-10-31T02:09:51.565Z,921.43
2017-10-31T02:10:04.438Z,921.4
2017-10-31T02:10:17.905Z,921.43
2017-10-31T02:10:31.390Z,921.43
2017-10-31T02:10:44.255Z,921.42
2017-10-31T02:10:57.719Z,921.42
2017-10-31T02:11:11.140Z,921.41
2017-10-31T02:11:24.594Z,921.41
2017-10-31T02:11:38.015Z,921.46
2017-10-31T02:11:50.902Z,921.45
2017-10-31T02:12:04.307Z,921.42
2017-10-31T02:12:17.171Z,921.43
2017-10-31T02:12:30.616Z,921.46
2017-10-31T02:12:44.071Z,921.42
2017-10-31T02:12:57.566Z,921.47
2017-10-31T02:13:11.088Z,921.46
2017-10-31T02:13:24.523Z,921.49
2017-10-31T02:13:38.003Z,921.47
2017-10-31T02:13:51.492Z,921.48
2017-10-31T02:14:04.966Z,921.49
2017-10-31T02:14:18.417Z,921.49
2017-10-31T02:14:31.311Z,921.5
2017-10-31T02:14:44.720Z,921.53
2017-10-31T02:14:56.546Z,921.51
2017-10-31T02:15:09.444Z,921.53
2017-10-31T02:15:22.913Z,921.5
2017-10-31T02:15:35.796Z,921.51
2017-10-31T02:15:49.228Z,921.53
2017-10-31T02:16:02.706Z,921.52
2017-10-31T02:16:15.585Z,921.49
2017-10-31T02:16:29.069Z,921.5
2017-10-31T02:16:42.565Z,921.5
2017-10-31T02:16:56.023Z,921.5
2017-10-31T02:17:09.514Z,921.46
2017-10-31T02:17:22.454Z,921.46
2017-10-31T02:17:35.892Z,921.46
2017-10-31T02:17:49.326Z,921.48
2017-10-31T02:18:02.262Z,921.47
2017-10-31T02:18:15.658Z,921.44
2017-10-31T02:18:28.569Z,921.47
2017-10-31T02:18:41.994Z,921.47
2017-10-31T02:18:55.416Z,921.44
2017-10-31T02:19:08.844Z,921.43
2017-10-31T02:19:21.701Z,921.46
2017-10-31T02:19:35.142Z,921.42
2017-10-31T02:19:48.665Z,921.46
2017-10-31T02:20:01.001Z,921.43
2017-10-31T02:20:13.870Z,921.41
2017-10-31T02:20:27.367Z,921.39
2017-10-31T02:20:40.292Z,921.4
2017-10-31T02:20:53.227Z,921.42
2017-10-31T02:21:06.630Z,921.4
2017-10-31T02:21:20.062Z,921.34
2017-10-31T02:21:33.547Z,921.38
2017-10-31T02:21:45.973Z,921.35
2017-10-31T02:21:58.874Z,921.34
2017-10-31T02:22:11.231Z,921.35
2017-10-31T02:22:24.080Z,921.36
2017-10-31T02:22:37.473Z,921.36
2017-10-31T02:22:50.319Z,921.37
2017-10-31T02:23:03.750Z,921.35
2017-10-31T02:23:16.672Z,921.33
2017-10-31T02:23:29.026Z,921.34
2017-10-31T02:23:41.978Z,921.34
2017-10-31T02:23:54.868Z,921.36
2017-10-31T02:24:08.358Z,921.31
2017-10-31T02:24:21.793Z,921.32
2017-10-31T02:24:35.233Z,921.32
2017-10-31T02:24:48.700Z,921.34
2017-10-31T02:25:02.156Z,921.34
2017-10-31T02:25:15.776Z,921.34
2017-10-31T02:25:29.198Z,921.36
2017-10-31T02:25:42.642Z,921.34
2017-10-31T02:25:55.536Z,921.37
2017-10-31T02:26:08.997Z,921.3
2017-10-31T02:26:22.432Z,921.35
2017-10-31T02:26:35.861Z,921.36
2017-10-31T02:26:49.293Z,921.36
2017-10-31T02:27:02.768Z,921.38
2017-10-31T02:27:16.166Z,921.36
2017-10-31T02:27:29.088Z,921.37
2017-10-31T02:27:42.022Z,921.4
2017-10-31T02:27:54.970Z,921.39
2017-10-31T02:28:07.888Z,921.39
2017-10-31T02:28:20.746Z,921.38
2017-10-31T02:28:33.659Z,921.39
2017-10-31T02:28:47.122Z,921.41
2017-10-31T02:29:00.559Z,921.4
2017-10-31T02:29:14.024Z,921.39
2017-10-31T02:29:27.476Z,921.42
2017-10-31T02:29:40.945Z,921.39
2017-10-31T02:29:54.358Z,921.43
2017-10-31T02:30:07.295Z,921.42
2017-10-31T02:30:20.263Z,921.41
2017-10-31T02:30:33.199Z,921.4
2017-10-31T02:30:46.589Z,921.35
2017-10-31T02:31:00.225Z,921.41
2017-10-31T02:31:13.070Z,921.39
2017-10-31T02:31:26.535Z,921.41
2017-10-31T02:31:39.975Z,921.4
2017-10-31T02:31:53.434Z,921.39
2017-10-31T02:32:06.929Z,921.37
2017-10-31T02:32:19.815Z,921.38
2017-10-31T02:32:33.324Z,921.4
2017-10-31T02:32:46.767Z,921.36
2017-10-31T02:33:00.207Z,921.38
2017-10-31T02:33:13.101Z,921.37
2017-10-31T02:33:25.960Z,921.39
2017-10-31T02:33:39.386Z,921.4
2017-10-31T02:33:52.858Z,921.36
2017-10-31T02:34:05.738Z,921.37
2017-10-31T02:34:19.202Z,921.38
2017-10-31T02:34:32.095Z,921.38
2017-10-31T02:34:45.578Z,921.4
2017-10-31T02:34:58.578Z,921.39
2017-10-31T02:35:11.982Z,921.39
2017-10-31T02:35:25.596Z,921.38
2017-10-31T02:35:37.959Z,921.38
2017-10-31T02:35:51.397Z,921.4
2017-10-31T02:36:03.748Z,921.38
2017-10-31T02:36:16.687Z,921.35
2017-10-31T02:36:30.187Z,921.37
2017-10-31T02:36:43.035Z,921.33
2017-10-31T02:36:56.478Z,921.36
2017-10-31T02:37:09.896Z,921.35
2017-10-31T02:37:23.433Z,921.33
2017-10-31T02:37:36.917Z,921.35
2017-10-31T02:37:50.400Z,921.31
2017-10-31T02:38:03.889Z,921.32
2017-10-31T02:38:16.775Z,921.35
2017-10-31T02:38:30.242Z,921.36
2017-10-31T02:38:43.682Z,921.33
2017-10-31T02:38:57.174Z,921.35
2017-10-31T02:39:10.600Z,921.34
2017-10-31T02:39:23.502Z,921.33
2017-10-31T02:39:36.936Z,921.33
2017-10-31T02:39:50.400Z,921.37
2017-10-31T02:40:03.848Z,921.32
2017-10-31T02:40:16.828Z,921.32
2017-10-31T02:40:29.163Z,921.3
2017-10-31T02:40:42.690Z,921.3
2017-10-31T02:40:56.143Z,921.33
2017-10-31T02:41:09.063Z,921.3
2017-10-31T02:41:22.562Z,921.35
2017-10-31T02:41:35.434Z,921.28
2017-10-31T02:41:48.936Z,921.33
2017-10-31T02:42:02.358Z,921.29
2017-10-31T02:42:15.760Z,921.32
2017-10-31T02:42:29.158Z,921.31
2017-10-31T02:42:43.926Z,921.31
2017-10-31T02:42:57.355Z,921.29
2017-10-31T02:43:10.308Z,921.33
2017-10-31T02:43:23.776Z,921.28
2017-10-31T02:43:37.283Z,921.32
2017-10-31T02:43:50.706Z,921.3
2017-10-31T02:44:04.133Z,921.29
2017-10-31T02:44:17.543Z,921.26
2017-10-31T02:44:30.965Z,921.29
2017-10-31T02:44:43.852Z,921.3
2017-10-31T02:44:57.252Z,921.32